sensor_id;sensor_type;location;lat;lon;timestamp;temperature;humidity
10722;DHT22;5412;59.450;18.124;2022-07-21T00:01:17;21.20;99.90
10722;DHT22;5412;59.450;18.124;2022-07-21T00:03:43;21.20;99.90
10722;DHT22;5412;59.450;18.124;2022-07-21T00:06:09;21.20;99.90
10722;DHT22;5412;59.450;18.124;2022-07-21T00:08:34;21.20;99.90
10722;DHT22;5412;59.450;18.124;2022-07-21T00:11:00;21.20;99.90
10722;DHT22;5412;59.450;18.124;2022-07-21T00:13:26;21.10;99.90
10722;DHT22;5412;59.450;18.124;2022-07-21T00:15:52;21.10;99.90
10722;DHT22;5412;59.450;18.124;2022-07-21T00:18:18;21.00;99.90
10722;DHT22;5412;59.450;18.124;2022-07-21T00:20:44;21.00;99.90
10722;DHT22;5412;59.450;18.124;2022-07-21T00:23:10;20.90;99.90
10722;DHT22;5412;59.450;18.124;2022-07-21T00:25:36;20.90;99.90
10722;DHT22;5412;59.450;18.124;2022-07-21T00:28:04;20.90;99.90
10722;DHT22;5412;59.450;18.124;2022-07-21T00:30:31;20.90;99.90
10722;DHT22;5412;59.450;18.124;2022-07-21T00:32:56;20.90;99.90
10722;DHT22;5412;59.450;18.124;2022-07-21T00:35:22;20.80;99.90
10722;DHT22;5412;59.450;18.124;2022-07-21T00:37:47;20.80;99.90
10722;DHT22;5412;59.450;18.124;2022-07-21T00:40:14;20.80;99.90
10722;DHT22;5412;59.450;18.124;2022-07-21T00:42:41;20.80;99.90
10722;DHT22;5412;59.450;18.124;2022-07-21T00:45:08;20.80;99.90
10722;DHT22;5412;59.450;18.124;2022-07-21T00:47:35;20.80;99.90
10722;DHT22;5412;59.450;18.124;2022-07-21T00:50:06;20.70;99.90
10722;DHT22;5412;59.450;18.124;2022-07-21T00:52:32;20.70;99.90
10722;DHT22;5412;59.450;18.124;2022-07-21T00:54:58;20.70;99.90
10722;DHT22;5412;59.450;18.124;2022-07-21T00:57:23;20.70;99.90
10722;DHT22;5412;59.450;18.124;2022-07-21T00:59:49;20.70;99.90
10722;DHT22;5412;59.450;18.124;2022-07-21T01:04:50;20.60;99.90
10722;DHT22;5412;59.450;18.124;2022-07-21T01:07:16;20.50;99.90
10722;DHT22;5412;59.450;18.124;2022-07-21T01:09:41;20.50;99.90
10722;DHT22;5412;59.450;18.124;2022-07-21T01:12:07;20.50;99.90
10722;DHT22;5412;59.450;18.124;2022-07-21T01:14:33;20.50;99.90
10722;DHT22;5412;59.450;18.124;2022-07-21T01:17:01;20.50;99.90
10722;DHT22;5412;59.450;18.124;2022-07-21T01:19:28;20.50;99.90
10722;DHT22;5412;59.450;18.124;2022-07-21T01:21:53;20.50;99.90
10722;DHT22;5412;59.450;18.124;2022-07-21T01:24:19;20.40;99.90
10722;DHT22;5412;59.450;18.124;2022-07-21T01:26:48;20.50;99.90
10722;DHT22;5412;59.450;18.124;2022-07-21T01:29:14;20.40;99.90
10722;DHT22;5412;59.450;18.124;2022-07-21T01:31:41;20.40;99.90
10722;DHT22;5412;59.450;18.124;2022-07-21T01:34:08;20.40;99.90
10722;DHT22;5412;59.450;18.124;2022-07-21T01:36:33;20.40;99.90
10722;DHT22;5412;59.450;18.124;2022-07-21T01:38:59;20.40;99.90
10722;DHT22;5412;59.450;18.124;2022-07-21T01:41:44;20.30;99.90
10722;DHT22;5412;59.450;18.124;2022-07-21T01:44:12;20.30;99.90
10722;DHT22;5412;59.450;18.124;2022-07-21T01:46:40;20.30;99.90
10722;DHT22;5412;59.450;18.124;2022-07-21T01:49:06;20.30;99.90
10722;DHT22;5412;59.450;18.124;2022-07-21T01:51:33;20.30;99.90
10722;DHT22;5412;59.450;18.124;2022-07-21T01:53:59;20.20;99.90
10722;DHT22;5412;59.450;18.124;2022-07-21T01:56:25;20.20;99.90
10722;DHT22;5412;59.450;18.124;2022-07-21T01:58:53;20.10;99.90
10722;DHT22;5412;59.450;18.124;2022-07-21T02:01:21;20.20;99.90
10722;DHT22;5412;59.450;18.124;2022-07-21T02:03:47;20.10;99.90
10722;DHT22;5412;59.450;18.124;2022-07-21T02:06:13;20.10;99.90
10722;DHT22;5412;59.450;18.124;2022-07-21T02:08:39;20.00;99.90
10722;DHT22;5412;59.450;18.124;2022-07-21T02:11:07;20.00;99.90
10722;DHT22;5412;59.450;18.124;2022-07-21T02:13:33;20.00;99.90
10722;DHT22;5412;59.450;18.124;2022-07-21T02:15:59;20.10;99.90
10722;DHT22;5412;59.450;18.124;2022-07-21T02:18:25;19.20;99.90
10722;DHT22;5412;59.450;18.124;2022-07-21T02:20:50;20.10;99.90
10722;DHT22;5412;59.450;18.124;2022-07-21T02:23:17;20.00;99.90
10722;DHT22;5412;59.450;18.124;2022-07-21T02:25:43;20.00;99.90
10722;DHT22;5412;59.450;18.124;2022-07-21T02:28:09;20.00;99.90
10722;DHT22;5412;59.450;18.124;2022-07-21T02:30:35;20.10;99.90
10722;DHT22;5412;59.450;18.124;2022-07-21T02:33:01;20.00;99.90
10722;DHT22;5412;59.450;18.124;2022-07-21T02:35:26;20.00;99.90
10722;DHT22;5412;59.450;18.124;2022-07-21T02:37:52;20.10;99.90
10722;DHT22;5412;59.450;18.124;2022-07-21T02:40:18;20.00;99.90
10722;DHT22;5412;59.450;18.124;2022-07-21T02:42:43;20.00;99.90
10722;DHT22;5412;59.450;18.124;2022-07-21T02:45:10;20.00;99.90
10722;DHT22;5412;59.450;18.124;2022-07-21T02:48:01;20.00;99.90
10722;DHT22;5412;59.450;18.124;2022-07-21T02:50:29;20.00;99.90
10722;DHT22;5412;59.450;18.124;2022-07-21T02:52:59;20.00;99.90
10722;DHT22;5412;59.450;18.124;2022-07-21T02:55:26;20.00;99.90
10722;DHT22;5412;59.450;18.124;2022-07-21T02:58:09;20.00;99.90
10722;DHT22;5412;59.450;18.124;2022-07-21T03:00:38;20.00;99.90
10722;DHT22;5412;59.450;18.124;2022-07-21T03:03:04;20.00;99.90
10722;DHT22;5412;59.450;18.124;2022-07-21T03:05:31;20.00;99.90
10722;DHT22;5412;59.450;18.124;2022-07-21T03:07:57;20.00;99.90
10722;DHT22;5412;59.450;18.124;2022-07-21T03:10:22;20.00;99.90
10722;DHT22;5412;59.450;18.124;2022-07-21T03:12:48;20.00;99.90
10722;DHT22;5412;59.450;18.124;2022-07-21T03:15:14;20.00;99.90
10722;DHT22;5412;59.450;18.124;2022-07-21T03:17:39;20.10;99.90
10722;DHT22;5412;59.450;18.124;2022-07-21T03:20:05;20.20;99.90
10722;DHT22;5412;59.450;18.124;2022-07-21T03:22:31;20.20;99.90
10722;DHT22;5412;59.450;18.124;2022-07-21T03:24:56;20.20;99.90
10722;DHT22;5412;59.450;18.124;2022-07-21T03:27:22;20.20;99.90
10722;DHT22;5412;59.450;18.124;2022-07-21T03:29:47;20.20;99.90
10722;DHT22;5412;59.450;18.124;2022-07-21T03:32:13;20.20;99.90
10722;DHT22;5412;59.450;18.124;2022-07-21T03:34:39;20.30;99.90
10722;DHT22;5412;59.450;18.124;2022-07-21T03:37:04;20.30;99.90
10722;DHT22;5412;59.450;18.124;2022-07-21T03:39:30;20.40;99.90
10722;DHT22;5412;59.450;18.124;2022-07-21T03:41:55;20.40;99.90
10722;DHT22;5412;59.450;18.124;2022-07-21T03:44:21;20.40;99.90
10722;DHT22;5412;59.450;18.124;2022-07-21T03:46:46;20.40;99.90
10722;DHT22;5412;59.450;18.124;2022-07-21T03:49:12;20.40;99.90
10722;DHT22;5412;59.450;18.124;2022-07-21T03:51:38;20.40;99.90
10722;DHT22;5412;59.450;18.124;2022-07-21T03:54:03;20.30;99.90
10722;DHT22;5412;59.450;18.124;2022-07-21T03:56:29;20.30;99.90
10722;DHT22;5412;59.450;18.124;2022-07-21T03:58:55;20.40;99.90
10722;DHT22;5412;59.450;18.124;2022-07-21T04:01:20;20.40;99.90
10722;DHT22;5412;59.450;18.124;2022-07-21T04:03:46;20.50;99.90
10722;DHT22;5412;59.450;18.124;2022-07-21T04:06:11;20.50;99.90
10722;DHT22;5412;59.450;18.124;2022-07-21T04:08:38;20.60;99.90
10722;DHT22;5412;59.450;18.124;2022-07-21T04:11:04;20.60;99.90
10722;DHT22;5412;59.450;18.124;2022-07-21T04:13:29;20.70;99.90
10722;DHT22;5412;59.450;18.124;2022-07-21T04:15:55;20.70;99.90
10722;DHT22;5412;59.450;18.124;2022-07-21T04:18:20;20.70;99.90
10722;DHT22;5412;59.450;18.124;2022-07-21T04:20:46;20.70;99.90
10722;DHT22;5412;59.450;18.124;2022-07-21T04:23:12;20.80;99.90
10722;DHT22;5412;59.450;18.124;2022-07-21T04:25:37;20.80;99.90
10722;DHT22;5412;59.450;18.124;2022-07-21T04:28:04;20.80;99.90
10722;DHT22;5412;59.450;18.124;2022-07-21T04:30:30;20.90;99.90
10722;DHT22;5412;59.450;18.124;2022-07-21T04:32:56;20.90;99.90
10722;DHT22;5412;59.450;18.124;2022-07-21T04:35:22;20.90;99.90
10722;DHT22;5412;59.450;18.124;2022-07-21T04:37:48;21.00;99.90
10722;DHT22;5412;59.450;18.124;2022-07-21T04:40:14;21.00;99.90
10722;DHT22;5412;59.450;18.124;2022-07-21T04:42:40;21.00;99.90
10722;DHT22;5412;59.450;18.124;2022-07-21T04:45:08;21.20;99.90
10722;DHT22;5412;59.450;18.124;2022-07-21T04:47:42;21.20;99.90
10722;DHT22;5412;59.450;18.124;2022-07-21T04:50:09;21.40;99.90
10722;DHT22;5412;59.450;18.124;2022-07-21T04:52:35;21.40;99.90
10722;DHT22;5412;59.450;18.124;2022-07-21T04:55:00;21.50;99.90
10722;DHT22;5412;59.450;18.124;2022-07-21T04:57:26;21.50;99.90
10722;DHT22;5412;59.450;18.124;2022-07-21T04:59:52;21.60;99.90
10722;DHT22;5412;59.450;18.124;2022-07-21T05:02:17;21.60;99.90
10722;DHT22;5412;59.450;18.124;2022-07-21T05:04:43;21.60;99.90
10722;DHT22;5412;59.450;18.124;2022-07-21T05:07:08;21.60;99.90
10722;DHT22;5412;59.450;18.124;2022-07-21T05:09:35;21.70;99.90
10722;DHT22;5412;59.450;18.124;2022-07-21T05:12:00;21.80;99.90
10722;DHT22;5412;59.450;18.124;2022-07-21T05:14:26;21.80;99.90
10722;DHT22;5412;59.450;18.124;2022-07-21T05:16:51;21.90;99.90
10722;DHT22;5412;59.450;18.124;2022-07-21T05:19:17;22.10;99.90
10722;DHT22;5412;59.450;18.124;2022-07-21T05:21:43;22.20;99.90
10722;DHT22;5412;59.450;18.124;2022-07-21T05:24:09;22.20;99.90
10722;DHT22;5412;59.450;18.124;2022-07-21T05:26:34;22.30;99.90
10722;DHT22;5412;59.450;18.124;2022-07-21T05:29:00;22.40;99.90
10722;DHT22;5412;59.450;18.124;2022-07-21T05:31:26;22.40;99.90
10722;DHT22;5412;59.450;18.124;2022-07-21T05:33:51;22.50;99.90
10722;DHT22;5412;59.450;18.124;2022-07-21T05:36:17;22.60;99.90
10722;DHT22;5412;59.450;18.124;2022-07-21T05:38:43;22.60;99.90
10722;DHT22;5412;59.450;18.124;2022-07-21T05:41:09;22.60;99.90
10722;DHT22;5412;59.450;18.124;2022-07-21T05:43:35;22.60;99.90
10722;DHT22;5412;59.450;18.124;2022-07-21T05:46:00;22.80;99.90
10722;DHT22;5412;59.450;18.124;2022-07-21T05:48:26;22.80;99.90
10722;DHT22;5412;59.450;18.124;2022-07-21T05:50:52;22.90;99.90
10722;DHT22;5412;59.450;18.124;2022-07-21T05:53:17;23.00;99.90
10722;DHT22;5412;59.450;18.124;2022-07-21T05:55:43;23.10;99.90
10722;DHT22;5412;59.450;18.124;2022-07-21T05:58:09;23.10;99.90
10722;DHT22;5412;59.450;18.124;2022-07-21T06:00:34;23.20;99.90
10722;DHT22;5412;59.450;18.124;2022-07-21T06:03:00;23.30;99.90
10722;DHT22;5412;59.450;18.124;2022-07-21T06:05:26;23.40;99.90
10722;DHT22;5412;59.450;18.124;2022-07-21T06:07:51;23.50;99.90
10722;DHT22;5412;59.450;18.124;2022-07-21T06:10:17;23.70;99.90
10722;DHT22;5412;59.450;18.124;2022-07-21T06:12:44;23.80;99.90
10722;DHT22;5412;59.450;18.124;2022-07-21T06:15:10;23.90;99.90
10722;DHT22;5412;59.450;18.124;2022-07-21T06:17:43;24.00;99.90
10722;DHT22;5412;59.450;18.124;2022-07-21T06:20:11;24.10;99.90
10722;DHT22;5412;59.450;18.124;2022-07-21T06:22:37;24.10;99.90
10722;DHT22;5412;59.450;18.124;2022-07-21T06:25:03;24.10;99.90
10722;DHT22;5412;59.450;18.124;2022-07-21T06:27:30;24.20;99.90
10722;DHT22;5412;59.450;18.124;2022-07-21T06:29:57;24.20;99.90
10722;DHT22;5412;59.450;18.124;2022-07-21T06:32:24;24.30;99.90
10722;DHT22;5412;59.450;18.124;2022-07-21T06:34:50;24.30;99.90
10722;DHT22;5412;59.450;18.124;2022-07-21T06:37:16;24.40;99.90
10722;DHT22;5412;59.450;18.124;2022-07-21T06:39:41;24.50;99.90
10722;DHT22;5412;59.450;18.124;2022-07-21T06:42:08;24.50;99.90
10722;DHT22;5412;59.450;18.124;2022-07-21T06:44:33;24.60;99.90
10722;DHT22;5412;59.450;18.124;2022-07-21T06:46:59;24.50;99.90
10722;DHT22;5412;59.450;18.124;2022-07-21T06:49:33;24.70;99.90
10722;DHT22;5412;59.450;18.124;2022-07-21T06:51:59;24.80;99.90
10722;DHT22;5412;59.450;18.124;2022-07-21T06:54:25;24.90;99.90
10722;DHT22;5412;59.450;18.124;2022-07-21T06:56:50;25.00;99.90
10722;DHT22;5412;59.450;18.124;2022-07-21T06:59:16;25.10;99.90
10722;DHT22;5412;59.450;18.124;2022-07-21T07:01:41;25.20;99.90
10722;DHT22;5412;59.450;18.124;2022-07-21T07:04:07;25.30;99.90
10722;DHT22;5412;59.450;18.124;2022-07-21T07:06:33;25.70;99.90
10722;DHT22;5412;59.450;18.124;2022-07-21T07:08:59;25.60;99.90
10722;DHT22;5412;59.450;18.124;2022-07-21T07:11:24;25.60;99.90
10722;DHT22;5412;59.450;18.124;2022-07-21T07:13:50;25.70;99.90
10722;DHT22;5412;59.450;18.124;2022-07-21T07:16:16;25.80;99.90
10722;DHT22;5412;59.450;18.124;2022-07-21T07:18:42;25.80;99.90
10722;DHT22;5412;59.450;18.124;2022-07-21T07:21:07;25.80;99.90
10722;DHT22;5412;59.450;18.124;2022-07-21T07:23:33;25.90;99.90
10722;DHT22;5412;59.450;18.124;2022-07-21T07:25:59;26.00;99.90
10722;DHT22;5412;59.450;18.124;2022-07-21T07:28:24;26.10;99.90
10722;DHT22;5412;59.450;18.124;2022-07-21T07:30:50;26.20;99.90
10722;DHT22;5412;59.450;18.124;2022-07-21T07:33:15;26.30;99.90
10722;DHT22;5412;59.450;18.124;2022-07-21T07:35:41;26.40;99.90
10722;DHT22;5412;59.450;18.124;2022-07-21T07:38:07;26.50;99.90
10722;DHT22;5412;59.450;18.124;2022-07-21T07:40:32;26.60;99.90
10722;DHT22;5412;59.450;18.124;2022-07-21T07:42:58;26.70;99.90
10722;DHT22;5412;59.450;18.124;2022-07-21T07:45:24;26.70;99.90
10722;DHT22;5412;59.450;18.124;2022-07-21T07:47:51;26.90;99.90
10722;DHT22;5412;59.450;18.124;2022-07-21T07:50:17;27.00;99.90
10722;DHT22;5412;59.450;18.124;2022-07-21T07:52:44;27.00;99.90
10722;DHT22;5412;59.450;18.124;2022-07-21T07:55:11;27.10;99.90
10722;DHT22;5412;59.450;18.124;2022-07-21T07:57:40;27.30;99.90
10722;DHT22;5412;59.450;18.124;2022-07-21T08:00:08;27.40;99.90
10722;DHT22;5412;59.450;18.124;2022-07-21T08:02:34;27.50;99.90
10722;DHT22;5412;59.450;18.124;2022-07-21T08:05:00;27.60;99.90
10722;DHT22;5412;59.450;18.124;2022-07-21T08:07:26;27.70;99.90
10722;DHT22;5412;59.450;18.124;2022-07-21T08:09:52;27.80;99.90
10722;DHT22;5412;59.450;18.124;2022-07-21T08:12:17;27.80;99.90
10722;DHT22;5412;59.450;18.124;2022-07-21T08:14:43;27.90;99.90
10722;DHT22;5412;59.450;18.124;2022-07-21T08:17:09;28.00;99.90
10722;DHT22;5412;59.450;18.124;2022-07-21T08:19:34;28.10;99.90
10722;DHT22;5412;59.450;18.124;2022-07-21T08:22:00;28.20;99.90
10722;DHT22;5412;59.450;18.124;2022-07-21T08:24:26;28.30;99.90
10722;DHT22;5412;59.450;18.124;2022-07-21T08:26:52;28.40;99.90
10722;DHT22;5412;59.450;18.124;2022-07-21T08:29:18;28.40;99.90
10722;DHT22;5412;59.450;18.124;2022-07-21T08:31:43;28.50;99.90
10722;DHT22;5412;59.450;18.124;2022-07-21T08:34:09;28.60;99.90
10722;DHT22;5412;59.450;18.124;2022-07-21T08:36:35;28.70;99.90
10722;DHT22;5412;59.450;18.124;2022-07-21T08:39:00;28.90;99.90
10722;DHT22;5412;59.450;18.124;2022-07-21T08:41:26;28.90;99.90
10722;DHT22;5412;59.450;18.124;2022-07-21T08:43:52;28.90;99.90
10722;DHT22;5412;59.450;18.124;2022-07-21T08:46:21;29.00;99.90
10722;DHT22;5412;59.450;18.124;2022-07-21T08:48:47;29.10;99.90
10722;DHT22;5412;59.450;18.124;2022-07-21T08:51:14;29.30;99.90
10722;DHT22;5412;59.450;18.124;2022-07-21T08:53:44;29.40;99.90
10722;DHT22;5412;59.450;18.124;2022-07-21T08:56:10;29.50;99.90
10722;DHT22;5412;59.450;18.124;2022-07-21T08:58:36;29.50;99.90
10722;DHT22;5412;59.450;18.124;2022-07-21T09:01:03;29.60;99.90
10722;DHT22;5412;59.450;18.124;2022-07-21T09:03:28;29.70;99.90
10722;DHT22;5412;59.450;18.124;2022-07-21T09:08:39;30.00;99.90
10722;DHT22;5412;59.450;18.124;2022-07-21T09:13:37;30.10;99.90
10722;DHT22;5412;59.450;18.124;2022-07-21T09:16:02;30.20;99.90
10722;DHT22;5412;59.450;18.124;2022-07-21T09:18:28;30.20;99.90
10722;DHT22;5412;59.450;18.124;2022-07-21T09:20:54;30.20;99.90
10722;DHT22;5412;59.450;18.124;2022-07-21T09:23:22;30.30;99.90
10722;DHT22;5412;59.450;18.124;2022-07-21T09:25:51;30.40;99.90
10722;DHT22;5412;59.450;18.124;2022-07-21T09:28:28;30.50;99.90
10722;DHT22;5412;59.450;18.124;2022-07-21T09:30:56;30.50;99.90
10722;DHT22;5412;59.450;18.124;2022-07-21T09:33:31;30.60;99.90
10722;DHT22;5412;59.450;18.124;2022-07-21T09:35:58;30.70;99.90
10722;DHT22;5412;59.450;18.124;2022-07-21T09:38:25;30.80;99.90
10722;DHT22;5412;59.450;18.124;2022-07-21T09:40:51;30.80;99.90
10722;DHT22;5412;59.450;18.124;2022-07-21T09:43:56;30.80;99.90
10722;DHT22;5412;59.450;18.124;2022-07-21T09:46:27;30.90;99.90
10722;DHT22;5412;59.450;18.124;2022-07-21T09:48:58;31.00;99.90
10722;DHT22;5412;59.450;18.124;2022-07-21T09:51:31;31.10;99.90
10722;DHT22;5412;59.450;18.124;2022-07-21T09:54:09;31.10;99.90
10722;DHT22;5412;59.450;18.124;2022-07-21T09:56:38;31.30;99.90
10722;DHT22;5412;59.450;18.124;2022-07-21T09:59:05;31.40;99.90
10722;DHT22;5412;59.450;18.124;2022-07-21T10:01:31;31.40;99.90
10722;DHT22;5412;59.450;18.124;2022-07-21T10:03:58;31.40;99.90
10722;DHT22;5412;59.450;18.124;2022-07-21T10:06:35;31.40;99.90
10722;DHT22;5412;59.450;18.124;2022-07-21T10:09:03;31.40;99.90
10722;DHT22;5412;59.450;18.124;2022-07-21T10:11:29;31.40;99.90
10722;DHT22;5412;59.450;18.124;2022-07-21T10:13:55;31.50;99.90
10722;DHT22;5412;59.450;18.124;2022-07-21T10:16:21;31.50;99.90
10722;DHT22;5412;59.450;18.124;2022-07-21T10:19:03;31.60;99.90
10722;DHT22;5412;59.450;18.124;2022-07-21T10:21:49;31.60;99.90
10722;DHT22;5412;59.450;18.124;2022-07-21T10:24:17;31.70;99.90
10722;DHT22;5412;59.450;18.124;2022-07-21T10:32:24;31.70;99.90
10722;DHT22;5412;59.450;18.124;2022-07-21T10:34:52;31.60;99.90
10722;DHT22;5412;59.450;18.124;2022-07-21T10:37:47;31.70;99.90
10722;DHT22;5412;59.450;18.124;2022-07-21T10:42:45;31.70;99.90
10722;DHT22;5412;59.450;18.124;2022-07-21T10:45:39;31.70;99.90
10722;DHT22;5412;59.450;18.124;2022-07-21T10:48:08;31.80;99.90
10722;DHT22;5412;59.450;18.124;2022-07-21T10:50:38;31.90;99.90
10722;DHT22;5412;59.450;18.124;2022-07-21T10:53:13;31.80;99.90
10722;DHT22;5412;59.450;18.124;2022-07-21T10:55:46;31.80;99.90
10722;DHT22;5412;59.450;18.124;2022-07-21T10:58:25;31.80;99.90
10722;DHT22;5412;59.450;18.124;2022-07-21T11:03:33;31.80;99.90
10722;DHT22;5412;59.450;18.124;2022-07-21T11:08:42;31.90;99.90
10722;DHT22;5412;59.450;18.124;2022-07-21T11:11:12;31.80;99.50
10722;DHT22;5412;59.450;18.124;2022-07-21T11:16:39;31.70;99.70
10722;DHT22;5412;59.450;18.124;2022-07-21T11:19:32;31.80;99.50
10722;DHT22;5412;59.450;18.124;2022-07-21T11:22:10;31.80;99.40
10722;DHT22;5412;59.450;18.124;2022-07-21T11:24:37;31.80;99.30
10722;DHT22;5412;59.450;18.124;2022-07-21T11:27:04;31.70;98.70
10722;DHT22;5412;59.450;18.124;2022-07-21T11:29:32;31.70;98.40
10722;DHT22;5412;59.450;18.124;2022-07-21T11:31:59;31.60;97.60
10722;DHT22;5412;59.450;18.124;2022-07-21T11:34:41;31.60;98.20
10722;DHT22;5412;59.450;18.124;2022-07-21T11:37:08;31.60;97.20
10722;DHT22;5412;59.450;18.124;2022-07-21T11:39:34;31.60;96.70
10722;DHT22;5412;59.450;18.124;2022-07-21T11:42:09;31.70;96.90
10722;DHT22;5412;59.450;18.124;2022-07-21T11:44:35;31.70;96.20
10722;DHT22;5412;59.450;18.124;2022-07-21T11:47:03;31.80;96.10
10722;DHT22;5412;59.450;18.124;2022-07-21T11:49:29;31.80;95.20
10722;DHT22;5412;59.450;18.124;2022-07-21T11:51:58;31.80;94.70
10722;DHT22;5412;59.450;18.124;2022-07-21T11:54:31;31.80;94.70
10722;DHT22;5412;59.450;18.124;2022-07-21T11:56:58;31.80;94.40
10722;DHT22;5412;59.450;18.124;2022-07-21T11:59:25;31.80;94.40
10722;DHT22;5412;59.450;18.124;2022-07-21T12:02:06;32.00;94.70
10722;DHT22;5412;59.450;18.124;2022-07-21T12:04:37;32.00;94.00
10722;DHT22;5412;59.450;18.124;2022-07-21T12:07:06;32.10;94.60
10722;DHT22;5412;59.450;18.124;2022-07-21T12:09:33;32.30;93.80
10722;DHT22;5412;59.450;18.124;2022-07-21T12:11:59;32.40;93.20
10722;DHT22;5412;59.450;18.124;2022-07-21T12:14:41;32.60;92.90
10722;DHT22;5412;59.450;18.124;2022-07-21T12:17:06;32.70;92.00
10722;DHT22;5412;59.450;18.124;2022-07-21T12:19:32;32.80;92.50
10722;DHT22;5412;59.450;18.124;2022-07-21T12:21:58;32.90;92.20
10722;DHT22;5412;59.450;18.124;2022-07-21T12:24:48;32.90;91.20
10722;DHT22;5412;59.450;18.124;2022-07-21T12:27:17;33.10;92.00
10722;DHT22;5412;59.450;18.124;2022-07-21T12:29:43;33.20;91.30
10722;DHT22;5412;59.450;18.124;2022-07-21T12:32:09;33.30;90.90
10722;DHT22;5412;59.450;18.124;2022-07-21T12:34:48;33.40;90.80
10722;DHT22;5412;59.450;18.124;2022-07-21T12:37:15;33.40;89.30
10722;DHT22;5412;59.450;18.124;2022-07-21T12:39:40;33.80;88.10
10722;DHT22;5412;59.450;18.124;2022-07-21T12:42:38;33.90;84.00
10722;DHT22;5412;59.450;18.124;2022-07-21T12:45:19;34.20;85.20
10722;DHT22;5412;59.450;18.124;2022-07-21T12:48:08;34.30;81.20
10722;DHT22;5412;59.450;18.124;2022-07-21T12:50:35;34.50;78.80
10722;DHT22;5412;59.450;18.124;2022-07-21T12:53:00;34.60;77.40
10722;DHT22;5412;59.450;18.124;2022-07-21T12:55:26;34.90;76.50
10722;DHT22;5412;59.450;18.124;2022-07-21T12:57:52;35.00;77.40
10722;DHT22;5412;59.450;18.124;2022-07-21T13:00:17;35.20;76.60
10722;DHT22;5412;59.450;18.124;2022-07-21T13:02:48;35.30;72.60
10722;DHT22;5412;59.450;18.124;2022-07-21T13:05:14;35.30;71.50
10722;DHT22;5412;59.450;18.124;2022-07-21T13:07:40;35.60;71.20
10722;DHT22;5412;59.450;18.124;2022-07-21T13:10:05;35.80;70.10
10722;DHT22;5412;59.450;18.124;2022-07-21T13:12:31;36.00;68.40
10722;DHT22;5412;59.450;18.124;2022-07-21T13:14:57;36.20;67.50
10722;DHT22;5412;59.450;18.124;2022-07-21T13:17:22;36.20;65.00
10722;DHT22;5412;59.450;18.124;2022-07-21T13:19:48;36.40;65.00
10722;DHT22;5412;59.450;18.124;2022-07-21T13:22:14;36.70;64.10
10722;DHT22;5412;59.450;18.124;2022-07-21T13:24:39;36.80;63.00
10722;DHT22;5412;59.450;18.124;2022-07-21T13:27:05;36.90;61.30
10722;DHT22;5412;59.450;18.124;2022-07-21T13:29:31;37.00;61.30
10722;DHT22;5412;59.450;18.124;2022-07-21T13:31:56;36.90;58.00
10722;DHT22;5412;59.450;18.124;2022-07-21T13:34:22;36.90;58.30
10722;DHT22;5412;59.450;18.124;2022-07-21T13:36:47;37.00;57.50
10722;DHT22;5412;59.450;18.124;2022-07-21T13:39:13;37.00;55.90
10722;DHT22;5412;59.450;18.124;2022-07-21T13:41:40;37.20;56.60
10722;DHT22;5412;59.450;18.124;2022-07-21T13:44:05;37.30;56.00
10722;DHT22;5412;59.450;18.124;2022-07-21T13:46:32;37.50;54.60
10722;DHT22;5412;59.450;18.124;2022-07-21T13:48:58;37.70;53.50
10722;DHT22;5412;59.450;18.124;2022-07-21T13:51:24;37.80;52.80
10722;DHT22;5412;59.450;18.124;2022-07-21T13:53:51;38.00;52.80
10722;DHT22;5412;59.450;18.124;2022-07-21T13:56:16;38.00;51.50
10722;DHT22;5412;59.450;18.124;2022-07-21T13:58:42;38.00;50.20
10722;DHT22;5412;59.450;18.124;2022-07-21T14:01:10;38.00;49.00
10722;DHT22;5412;59.450;18.124;2022-07-21T14:03:37;38.30;49.10
10722;DHT22;5412;59.450;18.124;2022-07-21T14:06:03;38.30;48.60
10722;DHT22;5412;59.450;18.124;2022-07-21T14:08:29;38.30;48.60
10722;DHT22;5412;59.450;18.124;2022-07-21T14:10:55;38.30;47.60
10722;DHT22;5412;59.450;18.124;2022-07-21T14:13:20;38.10;47.70
10722;DHT22;5412;59.450;18.124;2022-07-21T14:15:46;38.40;49.20
10722;DHT22;5412;59.450;18.124;2022-07-21T14:18:12;38.50;49.30
10722;DHT22;5412;59.450;18.124;2022-07-21T14:20:38;38.50;49.80
10722;DHT22;5412;59.450;18.124;2022-07-21T14:23:03;38.50;50.20
10722;DHT22;5412;59.450;18.124;2022-07-21T14:25:29;38.60;50.50
10722;DHT22;5412;59.450;18.124;2022-07-21T14:27:56;38.40;50.50
10722;DHT22;5412;59.450;18.124;2022-07-21T14:30:25;38.40;51.30
10722;DHT22;5412;59.450;18.124;2022-07-21T14:32:51;38.40;51.90
10722;DHT22;5412;59.450;18.124;2022-07-21T14:35:17;38.30;52.80
10722;DHT22;5412;59.450;18.124;2022-07-21T14:37:45;38.20;53.00
10722;DHT22;5412;59.450;18.124;2022-07-21T14:40:12;38.10;53.50
10722;DHT22;5412;59.450;18.124;2022-07-21T14:42:38;38.00;53.40
10722;DHT22;5412;59.450;18.124;2022-07-21T14:45:05;37.70;53.70
10722;DHT22;5412;59.450;18.124;2022-07-21T14:47:32;37.70;54.60
10722;DHT22;5412;59.450;18.124;2022-07-21T14:49:58;37.80;54.60
10722;DHT22;5412;59.450;18.124;2022-07-21T14:52:24;37.50;55.00
10722;DHT22;5412;59.450;18.124;2022-07-21T14:54:49;37.60;55.80
10722;DHT22;5412;59.450;18.124;2022-07-21T14:57:15;37.50;55.60
10722;DHT22;5412;59.450;18.124;2022-07-21T14:59:41;37.20;56.30
10722;DHT22;5412;59.450;18.124;2022-07-21T15:02:07;37.10;57.30
10722;DHT22;5412;59.450;18.124;2022-07-21T15:04:33;37.10;57.80
10722;DHT22;5412;59.450;18.124;2022-07-21T15:06:59;36.90;58.10
10722;DHT22;5412;59.450;18.124;2022-07-21T15:09:25;36.70;58.60
10722;DHT22;5412;59.450;18.124;2022-07-21T15:11:50;36.60;59.30
10722;DHT22;5412;59.450;18.124;2022-07-21T15:14:16;36.90;58.80
10722;DHT22;5412;59.450;18.124;2022-07-21T15:16:42;36.90;58.80
10722;DHT22;5412;59.450;18.124;2022-07-21T15:19:08;36.90;58.80
10722;DHT22;5412;59.450;18.124;2022-07-21T15:21:34;37.10;58.80
10722;DHT22;5412;59.450;18.124;2022-07-21T15:23:59;37.20;59.30
10722;DHT22;5412;59.450;18.124;2022-07-21T15:26:25;37.40;59.70
10722;DHT22;5412;59.450;18.124;2022-07-21T15:28:51;37.50;59.70
10722;DHT22;5412;59.450;18.124;2022-07-21T15:31:16;37.60;59.20
10722;DHT22;5412;59.450;18.124;2022-07-21T15:33:42;37.70;59.20
10722;DHT22;5412;59.450;18.124;2022-07-21T15:36:09;37.80;59.20
10722;DHT22;5412;59.450;18.124;2022-07-21T15:38:35;37.80;58.80
10722;DHT22;5412;59.450;18.124;2022-07-21T15:41:02;37.90;59.00
10722;DHT22;5412;59.450;18.124;2022-07-21T15:43:30;37.80;59.20
10722;DHT22;5412;59.450;18.124;2022-07-21T15:45:56;37.80;59.30
10722;DHT22;5412;59.450;18.124;2022-07-21T15:48:22;37.80;59.60
10722;DHT22;5412;59.450;18.124;2022-07-21T15:50:48;37.60;59.40
10722;DHT22;5412;59.450;18.124;2022-07-21T15:53:13;37.80;59.70
10722;DHT22;5412;59.450;18.124;2022-07-21T15:55:39;37.90;59.60